Great Ocean — 3FDA5 — position and weather

sailwx.info

Track history (hours):
 
Tides and Currents Weather Stations Pressure Air Temp Water Temp Dewpoint Dewpoint Depression Visibility Wind Speed Wind Dir Waves Ship Positions

Great Ocean

Last reported at 2014-Sep-05 15:31 UTC. Time now 2014-Sep-21 18:13 UTC.
Position N 01°15' E 104°06'.
Warning: this ship's position is 16 days out of date.

Length 180 m; draft 10.3 m.

Type: Cargo ship. MMSI: 371452000.

Date/timePositionNaut miles runAvg speedWind from/ knotsBaromVisibWave heightAir tempDewpointWater temp
2014-Sep-05 15:31N 01°15' E 104°06'9 9.9
2014-Sep-05 14:33N 01°17' E 103°57'1 0.8
2014-Sep-05 13:33N 01°17' E 103°58'0 0.1
2014-Sep-05 12:33N 01°17' E 103°58'0 0.1
2014-Sep-05 11:30N 01°17' E 103°57'0 0.0
2014-Sep-05 10:30N 01°17' E 103°57'0 0.0
2014-Sep-05 09:33N 01°17' E 103°57'0 0.0
2014-Sep-05 08:33N 01°17' E 103°57'0 0.0
2014-Sep-05 07:18N 01°17' E 103°57'0 0.0
2014-Sep-05 06:33N 01°17' E 103°57'0 0.0
2014-Sep-05 05:24N 01°17' E 103°57'0 0.1
2014-Sep-05 04:30N 01°17' E 103°57'0 0.0
2014-Sep-05 03:30N 01°17' E 103°57'0 0.1
2014-Sep-05 02:33N 01°17' E 103°58'4 4.0
2014-Sep-05 01:33N 01°13' E 103°56'9 9.2
2014-Sep-05 00:32N 01°09' E 103°47'  
Track history (hours):
 
Tides and Currents Weather Stations Pressure Air Temp Water Temp Dewpoint Dewpoint Depression Visibility Wind Speed Wind Dir Waves Ship Positions

Great Ocean

Last reported at 2014-Sep-05 15:31 UTC. Time now 2014-Sep-21 18:13 UTC.
Position N 01°15' E 104°06'.
Warning: this ship's position is 16 days out of date.

Length 180 m; draft 10.3 m.

Type: Cargo ship. MMSI: 371452000.

Date/timePositionNaut miles runAvg speedWind from/ knotsBaromVisibWave heightAir tempDewpointWater temp
2014-Sep-05 15:31N 01°15' E 104°06'9 9.9
2014-Sep-05 14:33N 01°17' E 103°57'1 0.8
2014-Sep-05 13:33N 01°17' E 103°58'0 0.1
2014-Sep-05 12:33N 01°17' E 103°58'0 0.1
2014-Sep-05 11:30N 01°17' E 103°57'0 0.0
2014-Sep-05 10:30N 01°17' E 103°57'0 0.0
2014-Sep-05 09:33N 01°17' E 103°57'0 0.0
2014-Sep-05 08:33N 01°17' E 103°57'0 0.0
2014-Sep-05 07:18N 01°17' E 103°57'0 0.0
2014-Sep-05 06:33N 01°17' E 103°57'0 0.0
2014-Sep-05 05:24N 01°17' E 103°57'0 0.1
2014-Sep-05 04:30N 01°17' E 103°57'0 0.0
2014-Sep-05 03:30N 01°17' E 103°57'0 0.1
2014-Sep-05 02:33N 01°17' E 103°58'4 4.0
2014-Sep-05 01:33N 01°13' E 103°56'9 9.2
2014-Sep-05 00:32N 01°09' E 103°47'  

Dump ship's entire track history